createdAt,value
2022-11-18T00:03:24.375Z,0.40
2022-11-18T00:08:28.224Z,1.10
2022-11-18T00:13:50.765Z,0.23
2022-11-18T00:18:54.620Z,0.60
2022-11-18T00:23:58.346Z,0.40
2022-11-18T00:29:03.414Z,0.30
2022-11-18T00:34:07.973Z,0.43
2022-11-18T00:39:12.794Z,0.50
2022-11-18T00:44:18.220Z,0.50
2022-11-18T00:49:22.181Z,0.50
2022-11-18T00:54:25.929Z,0.53
2022-11-18T00:59:31.045Z,0.43
2022-11-18T01:04:34.832Z,0.40
2022-11-18T01:09:38.749Z,0.80
2022-11-18T01:14:44.073Z,0.80
2022-11-18T01:19:48.036Z,0.80
2022-11-18T01:24:51.729Z,1.33
2022-11-18T01:29:57.030Z,0.90
2022-11-18T01:35:00.654Z,0.77
2022-11-18T01:40:05.375Z,0.70
2022-11-18T01:45:26.373Z,0.80
2022-11-18T01:50:30.886Z,0.70
2022-11-18T01:55:39.847Z,1.00
2022-11-18T02:00:45.023Z,1.40
2022-11-18T02:05:50.744Z,0.80
2022-11-18T02:10:54.610Z,1.00
2022-11-18T02:16:08.279Z,0.90
2022-11-18T02:21:26.986Z,0.87
2022-11-18T02:27:10.797Z,0.80
2022-11-18T02:32:21.007Z,1.10
2022-11-18T02:37:33.237Z,1.37
2022-11-18T02:42:39.089Z,1.10
2022-11-18T02:47:47.392Z,1.50
2022-11-18T02:52:55.489Z,1.10
2022-11-18T02:58:00.349Z,1.33
2022-11-18T03:03:26.934Z,1.40
2022-11-18T03:08:39.892Z,0.90
2022-11-18T03:13:55.719Z,0.87
2022-11-18T03:19:08.978Z,0.60
2022-11-18T03:24:19.004Z,0.70
2022-11-18T03:29:27.571Z,0.93
2022-11-18T03:34:37.612Z,0.90
2022-11-18T03:39:46.020Z,0.73
2022-11-18T03:44:54.099Z,0.80
2022-11-18T03:50:05.891Z,1.10
2022-11-18T03:55:14.333Z,1.10
2022-11-18T04:00:20.459Z,0.90
2022-11-18T04:05:29.542Z,1.20
2022-11-18T04:10:39.182Z,1.37
2022-11-18T04:15:44.210Z,1.23
2022-11-18T04:20:49.642Z,1.50
2022-11-18T04:25:53.284Z,1.40
2022-11-18T04:30:57.006Z,1.07
2022-11-18T04:36:02.182Z,1.00
2022-11-18T04:41:06.045Z,1.17
2022-11-18T04:46:09.909Z,0.93
2022-11-18T04:51:15.087Z,3.77
2022-11-18T04:56:18.707Z,4.83
2022-11-18T05:01:22.407Z,6.43
2022-11-18T05:06:27.856Z,8.00
2022-11-18T05:11:48.685Z,8.70
2022-11-18T05:16:54.541Z,8.10
2022-11-18T05:22:00.120Z,5.30
2022-11-18T05:27:04.136Z,6.03
2022-11-18T05:32:08.162Z,9.90
2022-11-18T05:37:13.893Z,9.23
2022-11-18T05:42:35.105Z,8.90
2022-11-18T05:47:59.539Z,8.40
2022-11-18T05:53:06.190Z,6.30
2022-11-18T05:58:10.218Z,7.27
2022-11-18T06:03:20.939Z,4.43
2022-11-18T06:08:32.120Z,5.30
2022-11-18T06:13:42.568Z,5.97
2022-11-18T06:18:46.292Z,5.50
2022-11-18T06:23:51.613Z,5.17
2022-11-18T06:28:57.086Z,5.30
2022-11-18T06:34:01.205Z,5.17
2022-11-18T06:39:07.242Z,5.03
2022-11-18T06:44:16.889Z,7.60
2022-11-18T06:49:20.657Z,8.37
2022-11-18T06:54:25.926Z,7.23
2022-11-18T06:59:29.715Z,8.47
2022-11-18T07:04:34.698Z,8.43
2022-11-18T07:09:39.925Z,6.63
2022-11-18T07:14:44.917Z,7.77
2022-11-18T07:19:48.549Z,7.00
2022-11-18T07:24:53.744Z,6.00
2022-11-18T07:29:57.515Z,5.50
2022-11-18T07:35:01.179Z,5.80
2022-11-18T07:40:07.531Z,6.50
2022-11-18T07:45:12.522Z,6.97
2022-11-18T07:50:16.540Z,5.10
2022-11-18T07:55:22.001Z,5.50
2022-11-18T08:00:25.821Z,6.27
2022-11-18T08:05:29.530Z,5.80
2022-11-18T08:10:34.609Z,6.07
2022-11-18T08:15:41.916Z,5.40
2022-11-18T08:20:46.052Z,5.30
2022-11-18T08:25:51.238Z,5.87
2022-11-18T08:30:54.996Z,5.60
2022-11-18T08:35:58.795Z,6.20
2022-11-18T08:41:06.073Z,5.17
2022-11-18T08:46:09.765Z,5.20
2022-11-18T08:51:15.857Z,4.33
2022-11-18T08:56:22.611Z,5.03
2022-11-18T09:01:26.392Z,5.67
2022-11-18T09:06:30.311Z,6.60
2022-11-18T09:11:36.387Z,7.27
2022-11-18T09:16:40.218Z,7.70
2022-11-18T09:21:44.332Z,7.47
2022-11-18T09:26:50.000Z,6.40
2022-11-18T09:31:54.115Z,7.17
2022-11-18T09:36:58.057Z,5.80
2022-11-18T09:42:18.695Z,5.70
2022-11-18T09:47:28.411Z,6.07
2022-11-18T09:52:38.100Z,7.30
2022-11-18T09:57:47.790Z,5.40
2022-11-18T10:02:59.464Z,7.77
2022-11-18T10:08:20.976Z,7.57
2022-11-18T10:13:36.162Z,10.97
2022-11-18T10:19:03.569Z,9.30
2022-11-18T10:24:14.720Z,6.87
2022-11-18T10:29:20.027Z,5.50
2022-11-18T10:34:23.889Z,6.53
2022-11-18T10:39:27.740Z,5.27
2022-11-18T10:44:38.118Z,6.33
2022-11-18T10:49:41.883Z,7.70
2022-11-18T10:54:46.018Z,7.37
2022-11-18T10:59:53.279Z,7.07
2022-11-18T11:04:57.068Z,7.07
2022-11-18T11:10:02.604Z,7.40
2022-11-18T11:15:11.932Z,6.20
2022-11-18T11:20:20.439Z,6.37
2022-11-18T11:31:12.819Z,5.47
2022-11-18T11:36:28.740Z,4.27
2022-11-18T11:41:42.232Z,4.10
2022-11-18T11:47:15.115Z,4.90
2022-11-18T11:52:28.651Z,5.50
2022-11-18T11:57:43.307Z,6.13
2022-11-18T12:02:59.475Z,6.60
2022-11-18T12:08:07.419Z,6.63
2022-11-18T12:13:23.213Z,7.10
2022-11-18T12:18:37.935Z,7.50
2022-11-18T12:23:41.643Z,5.27
2022-11-18T12:28:46.287Z,6.27
2022-11-18T12:33:54.797Z,6.33
2022-11-18T12:38:59.891Z,6.80
2022-11-18T12:44:07.998Z,5.23
2022-11-18T12:49:45.047Z,5.50
2022-11-18T12:54:50.953Z,4.90
2022-11-18T12:59:54.656Z,5.63
2022-11-18T13:05:10.350Z,7.87
2022-11-18T13:10:24.366Z,8.80
2022-11-18T13:15:46.496Z,9.47
2022-11-18T13:20:58.720Z,8.90
2022-11-18T13:26:07.682Z,7.93
2022-11-18T13:31:22.995Z,7.50
2022-11-18T13:36:27.816Z,6.70
2022-11-18T13:41:34.963Z,9.50
2022-11-18T13:46:40.903Z,9.37
2022-11-18T13:51:45.159Z,9.07
2022-11-18T13:56:50.380Z,8.60
2022-11-18T14:01:56.737Z,9.60
2022-11-18T14:07:24.101Z,11.97
2022-11-18T14:12:32.583Z,10.77
2022-11-18T14:17:36.395Z,17.10
2022-11-18T14:22:43.924Z,8.43
2022-11-18T14:27:50.397Z,7.30
2022-11-18T14:33:15.754Z,7.67
2022-11-18T14:38:47.641Z,7.10
2022-11-18T14:43:47.409Z,6.57
2022-11-18T14:48:51.633Z,5.77
2022-11-18T14:53:55.316Z,7.60
2022-11-18T14:59:00.837Z,10.10
2022-11-18T15:04:04.639Z,6.13
2022-11-18T15:09:09.072Z,3.87
2022-11-18T15:14:13.900Z,9.07
2022-11-18T15:19:17.844Z,3.70
2022-11-18T15:24:21.546Z,4.50
2022-11-18T15:29:27.186Z,10.60
2022-11-18T15:34:30.975Z,5.97
2022-11-18T15:39:34.761Z,5.57
2022-11-18T15:44:40.258Z,7.87
2022-11-18T15:49:45.554Z,7.60
2022-11-18T15:54:49.469Z,8.33
2022-11-18T15:59:54.611Z,8.23
2022-11-18T16:04:58.248Z,6.23
2022-11-18T16:10:19.242Z,5.13
2022-11-18T16:15:41.923Z,10.40
2022-11-18T16:20:45.505Z,6.47
2022-11-18T16:25:50.318Z,7.97
2022-11-18T16:31:13.166Z,5.43
2022-11-18T16:36:17.170Z,7.30
2022-11-18T16:41:32.941Z,6.53
2022-11-18T16:46:39.451Z,6.40
2022-11-18T16:51:44.799Z,5.33
2022-11-18T16:56:49.549Z,6.30
2022-11-18T17:01:57.323Z,5.50
2022-11-18T17:07:04.727Z,6.90
2022-11-18T17:12:09.264Z,4.87
2022-11-18T17:17:17.759Z,7.07
2022-11-18T17:22:21.404Z,8.57
2022-11-18T17:27:25.265Z,8.67
2022-11-18T17:32:31.470Z,41.13
2022-11-18T17:37:34.971Z,7.20
2022-11-18T17:42:38.515Z,6.20
2022-11-18T17:47:43.636Z,5.00
2022-11-18T17:52:47.220Z,4.77
2022-11-18T17:57:50.835Z,8.27
2022-11-18T18:02:55.809Z,11.33
2022-11-18T18:08:00.241Z,15.47
2022-11-18T18:13:20.878Z,15.73
2022-11-18T18:18:25.909Z,21.47
2022-11-18T18:23:29.613Z,14.73
2022-11-18T18:28:33.182Z,11.63
2022-11-18T18:33:39.928Z,16.90
2022-11-18T18:38:44.839Z,18.20
2022-11-18T18:43:49.068Z,13.07
2022-11-18T18:48:54.128Z,14.07
2022-11-18T18:53:59.134Z,12.40
2022-11-18T18:59:03.068Z,16.50
2022-11-18T19:04:09.253Z,20.80
2022-11-18T19:09:13.553Z,23.70
2022-11-18T19:14:20.034Z,16.57
2022-11-18T19:19:40.519Z,13.23
2022-11-18T19:24:51.522Z,41.67
2022-11-18T19:29:55.222Z,50.60
2022-11-18T19:35:00.311Z,18.73
2022-11-18T19:40:08.863Z,17.20
2022-11-18T19:45:14.635Z,13.13
2022-11-18T19:50:20.537Z,14.03
2022-11-18T19:55:26.433Z,14.67
2022-11-18T20:00:30.969Z,16.33
2022-11-18T20:05:56.002Z,14.70
2022-11-18T20:11:07.935Z,15.80
2022-11-18T20:16:17.828Z,16.13
2022-11-18T20:21:24.041Z,14.80
2022-11-18T20:26:31.700Z,16.20
2022-11-18T20:31:36.288Z,15.20
2022-11-18T20:36:41.788Z,15.83
2022-11-18T20:42:07.316Z,15.90
2022-11-18T20:47:12.116Z,16.13
2022-11-18T20:52:16.909Z,17.07
2022-11-18T20:57:20.479Z,16.40
2022-11-18T21:02:24.164Z,18.60
2022-11-18T21:07:29.644Z,17.40
2022-11-18T21:12:33.703Z,17.13
2022-11-18T21:17:37.262Z,16.47
2022-11-18T21:22:42.538Z,16.03
2022-11-18T21:27:47.206Z,15.37
2022-11-18T21:32:50.661Z,17.37
2022-11-18T21:37:55.555Z,18.50
2022-11-18T21:43:01.482Z,18.53
2022-11-18T21:48:05.262Z,17.33
2022-11-18T21:53:10.319Z,16.70
2022-11-18T21:58:13.800Z,17.83
2022-11-18T22:03:17.293Z,20.13
2022-11-18T22:08:22.182Z,18.97
2022-11-18T22:13:26.282Z,18.87
2022-11-18T22:18:31.636Z,18.00
2022-11-18T22:23:36.557Z,18.90
2022-11-18T22:28:40.597Z,73.77
2022-11-18T22:33:44.378Z,20.00
2022-11-18T22:38:49.896Z,18.57
2022-11-18T22:43:53.316Z,17.50
2022-11-18T22:48:57.240Z,17.53
2022-11-18T22:54:36.306Z,16.23
2022-11-18T22:59:26.243Z,14.90
2022-11-18T23:04:30.185Z,17.10
2022-11-18T23:09:35.207Z,16.90
2022-11-18T23:14:39.203Z,16.60
2022-11-18T23:19:43.898Z,15.40
2022-11-18T23:24:49.045Z,15.60
2022-11-18T23:29:52.728Z,18.13
2022-11-18T23:34:56.218Z,16.07
2022-11-18T23:40:01.188Z,16.07
2022-11-18T23:45:05.652Z,15.23
2022-11-18T23:50:10.197Z,14.03
2022-11-18T23:55:15.257Z,13.70
